sensor_id;sensor_type;location;lat;lon;timestamp;pressure;altitude;pressure_sealevel;temperature;humidity
30730;BME280;17476;48.458;7.928;2023-05-02T00:01:58;100143.38;;;12.18;93.65
30730;BME280;17476;48.458;7.928;2023-05-02T00:04:23;100143.38;;;12.18;92.30
30730;BME280;17476;48.458;7.928;2023-05-02T00:06:52;100145.84;;;12.19;94.15
30730;BME280;17476;48.458;7.928;2023-05-02T00:09:18;100153.38;;;12.14;94.20
30730;BME280;17476;48.458;7.928;2023-05-02T00:11:44;100140.44;;;12.13;94.04
30730;BME280;17476;48.458;7.928;2023-05-02T00:14:10;100147.31;;;12.06;95.70
30730;BME280;17476;48.458;7.928;2023-05-02T00:16:36;100143.25;;;12.03;94.81
30730;BME280;17476;48.458;7.928;2023-05-02T00:19:02;100146.38;;;12.07;94.51
30730;BME280;17476;48.458;7.928;2023-05-02T00:21:28;100153.06;;;12.09;93.41
30730;BME280;17476;48.458;7.928;2023-05-02T00:23:56;100150.94;;;12.05;92.67
30730;BME280;17476;48.458;7.928;2023-05-02T00:26:22;100148.66;;;12.01;95.67
30730;BME280;17476;48.458;7.928;2023-05-02T00:28:49;100153.59;;;11.88;95.82
30730;BME280;17476;48.458;7.928;2023-05-02T00:31:16;100149.03;;;11.82;94.65
30730;BME280;17476;48.458;7.928;2023-05-02T00:33:42;100148.69;;;11.85;93.96
30730;BME280;17476;48.458;7.928;2023-05-02T00:36:14;100153.91;;;11.85;94.15
30730;BME280;17476;48.458;7.928;2023-05-02T00:38:40;100156.72;;;11.84;93.78
30730;BME280;17476;48.458;7.928;2023-05-02T00:41:06;100158.53;;;11.83;93.94
30730;BME280;17476;48.458;7.928;2023-05-02T00:43:32;100165.06;;;11.79;94.08
30730;BME280;17476;48.458;7.928;2023-05-02T00:45:58;100163.75;;;11.75;95.56
30730;BME280;17476;48.458;7.928;2023-05-02T00:48:24;100162.59;;;11.61;97.03
30730;BME280;17476;48.458;7.928;2023-05-02T00:50:51;100156.88;;;11.58;97.27
30730;BME280;17476;48.458;7.928;2023-05-02T00:53:17;100160.16;;;11.60;96.39
30730;BME280;17476;48.458;7.928;2023-05-02T00:55:43;100155.75;;;11.52;98.39
30730;BME280;17476;48.458;7.928;2023-05-02T00:58:14;100156.22;;;11.56;96.27
30730;BME280;17476;48.458;7.928;2023-05-02T01:06:52;100161.78;;;11.69;96.89
30730;BME280;17476;48.458;7.928;2023-05-02T01:09:51;100163.09;;;11.73;98.17
30730;BME280;17476;48.458;7.928;2023-05-02T01:12:31;100169.47;;;11.79;97.45
30730;BME280;17476;48.458;7.928;2023-05-02T01:15:04;100169.63;;;11.77;98.93
30730;BME280;17476;48.458;7.928;2023-05-02T01:17:32;100169.47;;;11.70;99.72
30730;BME280;17476;48.458;7.928;2023-05-02T01:20:11;100173.88;;;11.70;100.00
30730;BME280;17476;48.458;7.928;2023-05-02T01:22:38;100178.16;;;11.79;99.95
30730;BME280;17476;48.458;7.928;2023-05-02T01:28:58;100174.41;;;11.90;99.25
30730;BME280;17476;48.458;7.928;2023-05-02T01:31:25;100171.63;;;11.99;98.19
30730;BME280;17476;48.458;7.928;2023-05-02T01:33:54;100169.94;;;11.98;98.02
30730;BME280;17476;48.458;7.928;2023-05-02T01:36:25;100167.66;;;12.03;97.45
30730;BME280;17476;48.458;7.928;2023-05-02T01:38:53;100175.03;;;12.08;97.29
30730;BME280;17476;48.458;7.928;2023-05-02T01:41:21;100171.59;;;12.08;97.22
30730;BME280;17476;48.458;7.928;2023-05-02T01:43:48;100174.22;;;11.99;97.04
30730;BME280;17476;48.458;7.928;2023-05-02T01:46:14;100174.06;;;11.85;98.66
30730;BME280;17476;48.458;7.928;2023-05-02T01:48:43;100179.47;;;11.91;97.62
30730;BME280;17476;48.458;7.928;2023-05-02T01:51:11;100176.03;;;11.99;97.00
30730;BME280;17476;48.458;7.928;2023-05-02T01:53:39;100186.19;;;12.02;96.82
30730;BME280;17476;48.458;7.928;2023-05-02T01:56:06;100186.84;;;11.96;97.20
30730;BME280;17476;48.458;7.928;2023-05-02T01:58:35;100180.78;;;11.87;98.34
30730;BME280;17476;48.458;7.928;2023-05-02T02:01:02;100181.59;;;11.80;98.54
30730;BME280;17476;48.458;7.928;2023-05-02T02:03:30;100190.94;;;11.82;98.25
30730;BME280;17476;48.458;7.928;2023-05-02T02:05:56;100187.31;;;11.91;97.40
30730;BME280;17476;48.458;7.928;2023-05-02T02:08:23;100195.50;;;12.05;97.23
30730;BME280;17476;48.458;7.928;2023-05-02T02:10:57;100199.09;;;12.12;96.34
30730;BME280;17476;48.458;7.928;2023-05-02T02:13:33;100208.09;;;12.17;96.10
30730;BME280;17476;48.458;7.928;2023-05-02T02:16:03;100206.81;;;12.13;96.67
30730;BME280;17476;48.458;7.928;2023-05-02T02:18:36;100209.28;;;12.07;97.31
30730;BME280;17476;48.458;7.928;2023-05-02T02:21:08;100204.69;;;12.09;96.51
30730;BME280;17476;48.458;7.928;2023-05-02T02:23:36;100212.38;;;12.02;97.48
30730;BME280;17476;48.458;7.928;2023-05-02T02:26:03;100207.00;;;11.95;98.39
30730;BME280;17476;48.458;7.928;2023-05-02T02:28:30;100206.34;;;12.01;97.62
30730;BME280;17476;48.458;7.928;2023-05-02T02:30:56;100205.31;;;12.11;97.35
30730;BME280;17476;48.458;7.928;2023-05-02T02:33:24;100209.88;;;12.25;95.95
30730;BME280;17476;48.458;7.928;2023-05-02T02:36:06;100208.91;;;12.18;96.22
30730;BME280;17476;48.458;7.928;2023-05-02T02:38:49;100217.13;;;12.15;96.19
30730;BME280;17476;48.458;7.928;2023-05-02T02:41:26;100212.19;;;12.20;96.47
30730;BME280;17476;48.458;7.928;2023-05-02T02:44:09;100212.84;;;12.22;96.38
30730;BME280;17476;48.458;7.928;2023-05-02T02:52:58;100211.56;;;12.10;96.12
30730;BME280;17476;48.458;7.928;2023-05-02T02:55:35;100216.16;;;12.08;95.87
30730;BME280;17476;48.458;7.928;2023-05-02T02:58:44;100218.13;;;11.97;96.18
30730;BME280;17476;48.458;7.928;2023-05-02T03:01:20;100213.56;;;11.99;96.38
30730;BME280;17476;48.458;7.928;2023-05-02T03:03:47;100228.59;;;11.97;96.75
30730;BME280;17476;48.458;7.928;2023-05-02T03:06:16;100232.56;;;11.93;96.50
30730;BME280;17476;48.458;7.928;2023-05-02T03:08:43;100232.53;;;11.85;96.70
30730;BME280;17476;48.458;7.928;2023-05-02T03:11:09;100236.31;;;11.83;97.21
30730;BME280;17476;48.458;7.928;2023-05-02T03:13:36;100244.81;;;11.85;96.72
30730;BME280;17476;48.458;7.928;2023-05-02T03:18:58;100255.16;;;11.86;96.79
30730;BME280;17476;48.458;7.928;2023-05-02T03:21:24;100261.22;;;11.87;96.60
30730;BME280;17476;48.458;7.928;2023-05-02T03:23:50;100265.75;;;11.76;97.29
30730;BME280;17476;48.458;7.928;2023-05-02T03:26:16;100268.19;;;11.54;100.00
30730;BME280;17476;48.458;7.928;2023-05-02T03:28:42;100266.88;;;11.49;98.80
30730;BME280;17476;48.458;7.928;2023-05-02T03:31:12;100269.66;;;11.56;98.09
30730;BME280;17476;48.458;7.928;2023-05-02T03:33:39;100277.88;;;11.53;98.74
30730;BME280;17476;48.458;7.928;2023-05-02T03:36:05;100275.91;;;11.63;97.39
30730;BME280;17476;48.458;7.928;2023-05-02T03:38:31;100282.28;;;11.61;96.71
30730;BME280;17476;48.458;7.928;2023-05-02T03:40:57;100290.31;;;11.59;96.73
30730;BME280;17476;48.458;7.928;2023-05-02T03:43:23;100288.81;;;11.48;97.90
30730;BME280;17476;48.458;7.928;2023-05-02T03:45:49;100294.03;;;11.48;97.25
30730;BME280;17476;48.458;7.928;2023-05-02T03:48:14;100293.75;;;11.52;96.66
30730;BME280;17476;48.458;7.928;2023-05-02T03:50:40;100293.75;;;11.52;95.16
30730;BME280;17476;48.458;7.928;2023-05-02T03:53:06;100296.84;;;11.47;95.11
30730;BME280;17476;48.458;7.928;2023-05-02T03:55:39;100300.75;;;11.51;95.38
30730;BME280;17476;48.458;7.928;2023-05-02T03:58:06;100293.69;;;11.35;96.71
30730;BME280;17476;48.458;7.928;2023-05-02T04:00:32;100298.22;;;11.17;97.86
30730;BME280;17476;48.458;7.928;2023-05-02T04:03:00;100303.41;;;11.09;97.79
30730;BME280;17476;48.458;7.928;2023-05-02T04:05:26;100295.41;;;11.10;97.58
30730;BME280;17476;48.458;7.928;2023-05-02T04:07:52;100290.03;;;11.12;98.25
30730;BME280;17476;48.458;7.928;2023-05-02T04:10:18;100288.34;;;11.03;98.99
30730;BME280;17476;48.458;7.928;2023-05-02T04:12:43;100286.84;;;10.92;99.14
30730;BME280;17476;48.458;7.928;2023-05-02T04:15:10;100289.75;;;10.89;100.00
30730;BME280;17476;48.458;7.928;2023-05-02T04:17:37;100294.13;;;10.80;99.54
30730;BME280;17476;48.458;7.928;2023-05-02T04:20:03;100293.19;;;10.89;99.30
30730;BME280;17476;48.458;7.928;2023-05-02T04:22:29;100296.69;;;10.98;98.54
30730;BME280;17476;48.458;7.928;2023-05-02T04:24:56;100299.44;;;10.97;99.55
30730;BME280;17476;48.458;7.928;2023-05-02T04:27:21;100301.84;;;10.90;99.95
30730;BME280;17476;48.458;7.928;2023-05-02T04:29:48;100304.81;;;10.87;98.68
30730;BME280;17476;48.458;7.928;2023-05-02T04:32:14;100318.50;;;10.81;99.08
30730;BME280;17476;48.458;7.928;2023-05-02T04:34:40;100318.88;;;10.86;99.15
30730;BME280;17476;48.458;7.928;2023-05-02T04:37:06;100326.88;;;10.84;100.00
30730;BME280;17476;48.458;7.928;2023-05-02T04:39:33;100329.78;;;10.81;99.82
30730;BME280;17476;48.458;7.928;2023-05-02T04:41:59;100332.09;;;10.84;98.66
30730;BME280;17476;48.458;7.928;2023-05-02T04:44:25;100333.41;;;10.88;97.97
30730;BME280;17476;48.458;7.928;2023-05-02T04:46:51;100340.81;;;10.93;97.46
30730;BME280;17476;48.458;7.928;2023-05-02T04:49:16;100350.81;;;10.98;96.40
30730;BME280;17476;48.458;7.928;2023-05-02T04:51:43;100346.75;;;11.03;96.80
30730;BME280;17476;48.458;7.928;2023-05-02T04:54:09;100355.75;;;11.09;96.83
30730;BME280;17476;48.458;7.928;2023-05-02T04:56:36;100354.97;;;11.16;96.41
30730;BME280;17476;48.458;7.928;2023-05-02T04:59:01;100361.09;;;11.25;96.05
30730;BME280;17476;48.458;7.928;2023-05-02T05:01:27;100364.72;;;11.32;96.15
30730;BME280;17476;48.458;7.928;2023-05-02T05:03:54;100375.22;;;11.40;96.57
30730;BME280;17476;48.458;7.928;2023-05-02T05:06:20;100376.41;;;11.54;97.16
30730;BME280;17476;48.458;7.928;2023-05-02T05:08:47;100383.13;;;11.57;97.49
30730;BME280;17476;48.458;7.928;2023-05-02T05:11:13;100380.88;;;11.70;96.73
30730;BME280;17476;48.458;7.928;2023-05-02T05:13:40;100380.22;;;11.68;97.34
30730;BME280;17476;48.458;7.928;2023-05-02T05:16:07;100391.69;;;11.75;97.33
30730;BME280;17476;48.458;7.928;2023-05-02T05:18:33;100388.47;;;11.81;98.16
30730;BME280;17476;48.458;7.928;2023-05-02T05:21:06;100394.06;;;11.86;97.32
30730;BME280;17476;48.458;7.928;2023-05-02T05:23:33;100399.94;;;11.88;97.61
30730;BME280;17476;48.458;7.928;2023-05-02T05:26:12;100404.72;;;12.01;99.51
30730;BME280;17476;48.458;7.928;2023-05-02T05:28:38;100399.50;;;12.09;100.00
30730;BME280;17476;48.458;7.928;2023-05-02T05:31:08;100400.81;;;12.21;99.53
30730;BME280;17476;48.458;7.928;2023-05-02T05:33:36;100411.66;;;12.35;100.00
30730;BME280;17476;48.458;7.928;2023-05-02T05:36:12;100407.72;;;12.55;97.64
30730;BME280;17476;48.458;7.928;2023-05-02T05:38:39;100416.22;;;12.73;98.88
30730;BME280;17476;48.458;7.928;2023-05-02T05:41:05;100416.06;;;12.83;97.50
30730;BME280;17476;48.458;7.928;2023-05-02T05:43:32;100422.06;;;13.00;97.85
30730;BME280;17476;48.458;7.928;2023-05-02T05:45:58;100424.69;;;13.24;99.49
30730;BME280;17476;48.458;7.928;2023-05-02T05:48:24;100424.63;;;13.41;95.98
30730;BME280;17476;48.458;7.928;2023-05-02T05:50:50;100409.28;;;13.60;95.61
30730;BME280;17476;48.458;7.928;2023-05-02T05:53:19;100413.28;;;13.79;94.71
30730;BME280;17476;48.458;7.928;2023-05-02T05:55:45;100415.78;;;14.04;92.46
30730;BME280;17476;48.458;7.928;2023-05-02T05:58:11;100417.66;;;14.18;92.33
30730;BME280;17476;48.458;7.928;2023-05-02T06:00:38;100432.44;;;14.19;90.75
30730;BME280;17476;48.458;7.928;2023-05-02T06:03:05;100428.88;;;14.35;90.01
30730;BME280;17476;48.458;7.928;2023-05-02T06:05:34;100430.81;;;14.41;89.01
30730;BME280;17476;48.458;7.928;2023-05-02T06:08:00;100431.06;;;14.54;88.44
30730;BME280;17476;48.458;7.928;2023-05-02T06:10:26;100431.19;;;14.75;87.24
30730;BME280;17476;48.458;7.928;2023-05-02T06:12:52;100430.41;;;14.90;86.00
30730;BME280;17476;48.458;7.928;2023-05-02T07:06:45;100471.72;;;18.85;68.39
30730;BME280;17476;48.458;7.928;2023-05-02T07:09:11;100469.03;;;19.11;69.60
30730;BME280;17476;48.458;7.928;2023-05-02T07:11:37;100472.00;;;19.48;60.81
30730;BME280;17476;48.458;7.928;2023-05-02T07:14:03;100470.84;;;19.24;60.96
30730;BME280;17476;48.458;7.928;2023-05-02T07:16:28;100475.19;;;18.78;62.43
30730;BME280;17476;48.458;7.928;2023-05-02T07:18:54;100477.19;;;18.83;62.10
30730;BME280;17476;48.458;7.928;2023-05-02T07:21:20;100490.66;;;18.88;61.85
30730;BME280;17476;48.458;7.928;2023-05-02T07:23:46;100486.59;;;18.79;60.73
30730;BME280;17476;48.458;7.928;2023-05-02T07:26:12;100481.50;;;18.71;63.79
30730;BME280;17476;48.458;7.928;2023-05-02T07:28:37;100478.81;;;18.64;63.92
30730;BME280;17476;48.458;7.928;2023-05-02T07:31:03;100480.41;;;18.45;65.01
30730;BME280;17476;48.458;7.928;2023-05-02T07:33:29;100481.44;;;18.44;64.99
30730;BME280;17476;48.458;7.928;2023-05-02T07:35:55;100484.88;;;18.32;66.13
30730;BME280;17476;48.458;7.928;2023-05-02T07:38:21;100492.22;;;18.36;62.26
30730;BME280;17476;48.458;7.928;2023-05-02T07:40:47;100489.97;;;18.33;63.47
30730;BME280;17476;48.458;7.928;2023-05-02T07:43:13;100490.41;;;18.43;64.94
30730;BME280;17476;48.458;7.928;2023-05-02T07:45:40;100500.00;;;18.58;64.69
30730;BME280;17476;48.458;7.928;2023-05-02T07:48:06;100495.13;;;18.81;64.93
30730;BME280;17476;48.458;7.928;2023-05-02T07:50:32;100497.78;;;18.94;64.32
30730;BME280;17476;48.458;7.928;2023-05-02T07:52:57;100496.16;;;18.93;63.87
30730;BME280;17476;48.458;7.928;2023-05-02T07:55:23;100498.81;;;19.06;63.17
30730;BME280;17476;48.458;7.928;2023-05-02T07:57:51;100497.56;;;19.09;63.66
30730;BME280;17476;48.458;7.928;2023-05-02T08:00:18;100500.41;;;19.27;63.27
30730;BME280;17476;48.458;7.928;2023-05-02T08:02:44;100493.69;;;19.38;63.43
30730;BME280;17476;48.458;7.928;2023-05-02T08:05:10;100498.53;;;19.48;59.85
30730;BME280;17476;48.458;7.928;2023-05-02T08:07:36;100493.78;;;19.76;63.74
30730;BME280;17476;48.458;7.928;2023-05-02T08:10:03;100493.78;;;20.21;62.19
30730;BME280;17476;48.458;7.928;2023-05-02T08:12:29;100492.38;;;20.82;63.07
30730;BME280;17476;48.458;7.928;2023-05-02T08:14:54;100497.13;;;21.23;59.47
30730;BME280;17476;48.458;7.928;2023-05-02T08:17:20;100494.56;;;21.90;57.59
30730;BME280;17476;48.458;7.928;2023-05-02T08:19:46;100492.38;;;21.50;53.62
30730;BME280;17476;48.458;7.928;2023-05-02T08:22:12;100499.91;;;21.90;59.35
30730;BME280;17476;48.458;7.928;2023-05-02T08:24:38;100496.66;;;22.48;53.43
30730;BME280;17476;48.458;7.928;2023-05-02T08:27:04;100499.31;;;23.01;54.54
30730;BME280;17476;48.458;7.928;2023-05-02T08:29:31;100491.78;;;23.45;53.41
30730;BME280;17476;48.458;7.928;2023-05-02T08:31:57;100490.88;;;23.91;50.20
30730;BME280;17476;48.458;7.928;2023-05-02T08:34:23;100494.03;;;23.77;48.80
30730;BME280;17476;48.458;7.928;2023-05-02T08:36:48;100498.66;;;23.93;50.72
30730;BME280;17476;48.458;7.928;2023-05-02T08:39:14;100497.31;;;24.36;48.29
30730;BME280;17476;48.458;7.928;2023-05-02T08:41:41;100503.75;;;24.85;50.31
30730;BME280;17476;48.458;7.928;2023-05-02T08:44:07;100501.22;;;25.29;48.23
30730;BME280;17476;48.458;7.928;2023-05-02T08:46:35;100501.56;;;25.54;47.57
30730;BME280;17476;48.458;7.928;2023-05-02T08:49:02;100500.84;;;25.81;47.30
30730;BME280;17476;48.458;7.928;2023-05-02T08:51:29;100494.13;;;26.05;47.69
30730;BME280;17476;48.458;7.928;2023-05-02T08:53:57;100491.91;;;25.97;42.88
30730;BME280;17476;48.458;7.928;2023-05-02T08:56:24;100499.66;;;26.21;42.46
30730;BME280;17476;48.458;7.928;2023-05-02T08:58:50;100501.44;;;26.37;42.20
30730;BME280;17476;48.458;7.928;2023-05-02T09:01:18;100504.81;;;26.54;41.67
30730;BME280;17476;48.458;7.928;2023-05-02T09:03:47;100511.09;;;27.02;44.53
30730;BME280;17476;48.458;7.928;2023-05-02T09:06:19;100512.22;;;27.06;39.42
30730;BME280;17476;48.458;7.928;2023-05-02T09:08:48;100510.47;;;27.27;43.67
30730;BME280;17476;48.458;7.928;2023-05-02T09:11:15;100513.69;;;27.71;41.99
30730;BME280;17476;48.458;7.928;2023-05-02T09:13:49;100517.25;;;27.92;40.46
30730;BME280;17476;48.458;7.928;2023-05-02T09:16:22;100506.00;;;28.16;37.91
30730;BME280;17476;48.458;7.928;2023-05-02T09:18:52;100508.75;;;28.36;37.62
30730;BME280;17476;48.458;7.928;2023-05-02T09:21:20;100511.06;;;27.97;36.58
30730;BME280;17476;48.458;7.928;2023-05-02T09:23:55;100516.47;;;28.02;38.61
30730;BME280;17476;48.458;7.928;2023-05-02T09:26:22;100508.69;;;28.11;38.13
30730;BME280;17476;48.458;7.928;2023-05-02T09:28:53;100523.72;;;27.91;39.76
30730;BME280;17476;48.458;7.928;2023-05-02T09:31:25;100526.06;;;27.83;38.73
30730;BME280;17476;48.458;7.928;2023-05-02T09:33:52;100520.47;;;27.84;39.23
30730;BME280;17476;48.458;7.928;2023-05-02T09:36:20;100518.31;;;27.86;40.38
30730;BME280;17476;48.458;7.928;2023-05-02T09:38:48;100521.31;;;28.00;39.56
30730;BME280;17476;48.458;7.928;2023-05-02T09:41:14;100520.78;;;27.98;38.91
30730;BME280;17476;48.458;7.928;2023-05-02T09:43:42;100524.50;;;27.92;41.05
30730;BME280;17476;48.458;7.928;2023-05-02T09:46:10;100530.16;;;27.95;40.76
30730;BME280;17476;48.458;7.928;2023-05-02T09:48:56;100521.31;;;28.10;41.09
30730;BME280;17476;48.458;7.928;2023-05-02T09:51:24;100519.78;;;28.35;37.67
30730;BME280;17476;48.458;7.928;2023-05-02T09:53:51;100523.81;;;28.37;38.69
30730;BME280;17476;48.458;7.928;2023-05-02T09:56:17;100523.31;;;28.66;38.18
30730;BME280;17476;48.458;7.928;2023-05-02T09:58:44;100521.41;;;28.76;38.16
30730;BME280;17476;48.458;7.928;2023-05-02T10:01:17;100521.09;;;29.34;37.82
30730;BME280;17476;48.458;7.928;2023-05-02T10:03:47;100518.63;;;29.48;37.42
30730;BME280;17476;48.458;7.928;2023-05-02T10:06:15;100515.84;;;29.73;37.99
30730;BME280;17476;48.458;7.928;2023-05-02T10:08:42;100511.72;;;29.96;34.14
30730;BME280;17476;48.458;7.928;2023-05-02T10:11:11;100516.78;;;30.08;38.46
30730;BME280;17476;48.458;7.928;2023-05-02T10:13:38;100521.91;;;30.09;35.12
30730;BME280;17476;48.458;7.928;2023-05-02T10:16:06;100517.31;;;30.05;34.10
30730;BME280;17476;48.458;7.928;2023-05-02T10:21:25;100517.94;;;30.75;35.54
30730;BME280;17476;48.458;7.928;2023-05-02T10:23:53;100515.19;;;30.46;35.99
30730;BME280;17476;48.458;7.928;2023-05-02T10:26:19;100509.47;;;30.48;33.12
30730;BME280;17476;48.458;7.928;2023-05-02T10:28:49;100511.81;;;30.25;32.09
30730;BME280;17476;48.458;7.928;2023-05-02T10:31:17;100499.50;;;30.04;33.50
30730;BME280;17476;48.458;7.928;2023-05-02T10:33:43;100503.03;;;30.49;34.79
30730;BME280;17476;48.458;7.928;2023-05-02T10:36:11;100506.59;;;29.95;33.37
30730;BME280;17476;48.458;7.928;2023-05-02T10:38:38;100509.28;;;29.20;32.81
30730;BME280;17476;48.458;7.928;2023-05-02T10:41:11;100510.91;;;28.65;34.80
30730;BME280;17476;48.458;7.928;2023-05-02T10:43:38;100503.38;;;29.07;36.65
30730;BME280;17476;48.458;7.928;2023-05-02T10:49:07;100503.16;;;29.79;32.69
30730;BME280;17476;48.458;7.928;2023-05-02T10:51:35;100501.16;;;29.40;32.63
30730;BME280;17476;48.458;7.928;2023-05-02T10:57:05;100491.38;;;30.14;32.53
30730;BME280;17476;48.458;7.928;2023-05-02T10:59:38;100490.69;;;31.01;36.23
30730;BME280;17476;48.458;7.928;2023-05-02T11:05:03;100485.69;;;31.85;30.90
30730;BME280;17476;48.458;7.928;2023-05-02T11:07:34;100488.34;;;31.66;32.21
30730;BME280;17476;48.458;7.928;2023-05-02T11:12:45;100484.03;;;31.65;28.75
30730;BME280;17476;48.458;7.928;2023-05-02T11:18:13;100481.19;;;32.31;30.47
30730;BME280;17476;48.458;7.928;2023-05-02T11:20:43;100483.75;;;32.04;28.85
30730;BME280;17476;48.458;7.928;2023-05-02T11:25:54;100490.19;;;31.46;29.16
30730;BME280;17476;48.458;7.928;2023-05-02T11:28:39;100492.34;;;31.68;31.21
30730;BME280;17476;48.458;7.928;2023-05-02T11:34:00;100490.25;;;32.22;31.26
30730;BME280;17476;48.458;7.928;2023-05-02T11:36:33;100482.34;;;32.77;29.46
30730;BME280;17476;48.458;7.928;2023-05-02T11:39:00;100484.09;;;32.54;28.75
30730;BME280;17476;48.458;7.928;2023-05-02T11:44:05;100478.56;;;32.45;27.67
30730;BME280;17476;48.458;7.928;2023-05-02T11:46:32;100475.44;;;32.38;28.26
30730;BME280;17476;48.458;7.928;2023-05-02T11:48:58;100474.69;;;31.95;28.65
30730;BME280;17476;48.458;7.928;2023-05-02T11:51:25;100481.16;;;31.99;28.85
30730;BME280;17476;48.458;7.928;2023-05-02T11:53:51;100469.28;;;32.32;29.77
30730;BME280;17476;48.458;7.928;2023-05-02T11:56:23;100464.41;;;32.48;28.64
30730;BME280;17476;48.458;7.928;2023-05-02T11:59:02;100469.34;;;32.27;28.90
30730;BME280;17476;48.458;7.928;2023-05-02T12:01:28;100471.19;;;32.78;30.21
30730;BME280;17476;48.458;7.928;2023-05-02T12:04:06;100472.88;;;33.07;31.36
30730;BME280;17476;48.458;7.928;2023-05-02T12:06:32;100466.44;;;33.30;29.64
30730;BME280;17476;48.458;7.928;2023-05-02T12:09:12;100470.84;;;33.67;29.13
30730;BME280;17476;48.458;7.928;2023-05-02T12:11:38;100463.94;;;33.61;28.54
30730;BME280;17476;48.458;7.928;2023-05-02T12:14:05;100474.38;;;33.54;28.65
30730;BME280;17476;48.458;7.928;2023-05-02T12:16:31;100465.22;;;33.36;26.97
30730;BME280;17476;48.458;7.928;2023-05-02T12:18:57;100464.78;;;33.71;27.80
30730;BME280;17476;48.458;7.928;2023-05-02T12:21:27;100458.03;;;33.82;27.86
30730;BME280;17476;48.458;7.928;2023-05-02T12:23:55;100463.56;;;33.90;26.46
30730;BME280;17476;48.458;7.928;2023-05-02T12:26:24;100466.03;;;33.37;27.72
30730;BME280;17476;48.458;7.928;2023-05-02T12:28:54;100464.81;;;33.57;29.09
30730;BME280;17476;48.458;7.928;2023-05-02T12:31:21;100469.34;;;33.34;26.93
30730;BME280;17476;48.458;7.928;2023-05-02T12:33:48;100456.78;;;33.52;26.46
30730;BME280;17476;48.458;7.928;2023-05-02T12:36:16;100452.00;;;33.07;27.49
30730;BME280;17476;48.458;7.928;2023-05-02T12:38:51;100461.22;;;33.20;27.66
30730;BME280;17476;48.458;7.928;2023-05-02T12:41:27;100456.81;;;33.10;26.72
30730;BME280;17476;48.458;7.928;2023-05-02T12:43:55;100451.06;;;33.26;28.21
30730;BME280;17476;48.458;7.928;2023-05-02T12:46:21;100460.13;;;33.21;27.21
30730;BME280;17476;48.458;7.928;2023-05-02T12:49:07;100459.78;;;32.81;27.70
30730;BME280;17476;48.458;7.928;2023-05-02T12:51:38;100454.00;;;33.16;29.23
30730;BME280;17476;48.458;7.928;2023-05-02T12:54:04;100456.00;;;33.10;26.95
30730;BME280;17476;48.458;7.928;2023-05-02T12:56:40;100451.59;;;33.00;26.69
30730;BME280;17476;48.458;7.928;2023-05-02T12:59:08;100448.47;;;33.07;27.47
30730;BME280;17476;48.458;7.928;2023-05-02T13:01:35;100447.06;;;32.96;28.18
30730;BME280;17476;48.458;7.928;2023-05-02T13:04:01;100435.97;;;32.78;27.42
30730;BME280;17476;48.458;7.928;2023-05-02T13:06:26;100442.44;;;32.96;27.95
30730;BME280;17476;48.458;7.928;2023-05-02T13:08:52;100447.75;;;32.88;29.05
30730;BME280;17476;48.458;7.928;2023-05-02T13:11:18;100449.69;;;32.87;27.17
30730;BME280;17476;48.458;7.928;2023-05-02T13:13:45;100453.50;;;32.86;27.74
30730;BME280;17476;48.458;7.928;2023-05-02T13:16:10;100452.06;;;33.30;28.72
30730;BME280;17476;48.458;7.928;2023-05-02T13:18:36;100453.00;;;33.39;25.91
30730;BME280;17476;48.458;7.928;2023-05-02T13:21:02;100452.13;;;32.83;26.22
30730;BME280;17476;48.458;7.928;2023-05-02T13:23:29;100450.84;;;32.16;28.33
30730;BME280;17476;48.458;7.928;2023-05-02T13:25:55;100458.81;;;32.07;29.26
30730;BME280;17476;48.458;7.928;2023-05-02T13:28:21;100476.47;;;32.04;29.01
30730;BME280;17476;48.458;7.928;2023-05-02T13:30:47;100478.69;;;31.36;29.30
30730;BME280;17476;48.458;7.928;2023-05-02T13:33:13;100491.88;;;30.89;29.98
30730;BME280;17476;48.458;7.928;2023-05-02T13:35:39;100498.50;;;29.95;31.38
30730;BME280;17476;48.458;7.928;2023-05-02T13:38:05;100510.91;;;29.21;33.42
30730;BME280;17476;48.458;7.928;2023-05-02T13:40:30;100504.41;;;28.20;35.52
30730;BME280;17476;48.458;7.928;2023-05-02T13:42:56;100507.25;;;27.78;37.03
30730;BME280;17476;48.458;7.928;2023-05-02T13:45:22;100513.81;;;27.44;36.87
30730;BME280;17476;48.458;7.928;2023-05-02T13:47:48;100512.38;;;26.94;38.79
30730;BME280;17476;48.458;7.928;2023-05-02T13:50:14;100514.47;;;26.55;39.80
30730;BME280;17476;48.458;7.928;2023-05-02T13:52:40;100503.00;;;26.33;39.52
30730;BME280;17476;48.458;7.928;2023-05-02T13:55:06;100507.03;;;25.81;40.89
30730;BME280;17476;48.458;7.928;2023-05-02T13:57:32;100507.09;;;25.48;40.72
30730;BME280;17476;48.458;7.928;2023-05-02T13:59:58;100504.88;;;25.23;42.66
30730;BME280;17476;48.458;7.928;2023-05-02T14:02:24;100493.47;;;25.11;42.69
30730;BME280;17476;48.458;7.928;2023-05-02T14:04:50;100502.59;;;24.98;43.96
30730;BME280;17476;48.458;7.928;2023-05-02T14:07:16;100492.97;;;24.80;43.79
30730;BME280;17476;48.458;7.928;2023-05-02T14:09:42;100500.41;;;24.78;43.20
30730;BME280;17476;48.458;7.928;2023-05-02T14:12:07;100497.50;;;24.46;41.20
30730;BME280;17476;48.458;7.928;2023-05-02T14:14:33;100492.94;;;24.18;41.91
30730;BME280;17476;48.458;7.928;2023-05-02T14:17:02;100500.22;;;24.06;41.48
30730;BME280;17476;48.458;7.928;2023-05-02T14:19:27;100499.25;;;23.83;41.51
30730;BME280;17476;48.458;7.928;2023-05-02T14:21:53;100499.63;;;23.75;42.63
30730;BME280;17476;48.458;7.928;2023-05-02T14:24:19;100500.19;;;23.77;43.56
30730;BME280;17476;48.458;7.928;2023-05-02T14:26:45;100502.69;;;23.95;42.83
30730;BME280;17476;48.458;7.928;2023-05-02T14:29:12;100508.81;;;24.08;42.50
30730;BME280;17476;48.458;7.928;2023-05-02T14:31:37;100503.03;;;23.99;41.62